sensor_id;sensor_type;location;lat;lon;timestamp;P1;durP1;ratioP1;P2;durP2;ratioP2
58446;SDS011;44240;51.840;7.258;2022-07-29T00:01:25;5.60;;;1.02;;
58446;SDS011;44240;51.840;7.258;2022-07-29T00:03:50;2.55;;;1.30;;
58446;SDS011;44240;51.840;7.258;2022-07-29T00:06:16;2.85;;;1.25;;
58446;SDS011;44240;51.840;7.258;2022-07-29T00:08:42;4.90;;;1.33;;
58446;SDS011;44240;51.840;7.258;2022-07-29T00:11:07;5.28;;;1.30;;
58446;SDS011;44240;51.840;7.258;2022-07-29T00:13:33;4.93;;;1.23;;
58446;SDS011;44240;51.840;7.258;2022-07-29T00:15:58;6.28;;;1.40;;
58446;SDS011;44240;51.840;7.258;2022-07-29T00:18:24;4.00;;;1.15;;
58446;SDS011;44240;51.840;7.258;2022-07-29T00:20:50;1.20;;;0.80;;
58446;SDS011;44240;51.840;7.258;2022-07-29T00:23:15;5.03;;;1.27;;
58446;SDS011;44240;51.840;7.258;2022-07-29T00:25:41;2.05;;;1.30;;
58446;SDS011;44240;51.840;7.258;2022-07-29T00:28:06;3.67;;;1.30;;
58446;SDS011;44240;51.840;7.258;2022-07-29T00:30:32;3.08;;;1.55;;
58446;SDS011;44240;51.840;7.258;2022-07-29T00:32:57;6.88;;;1.73;;
58446;SDS011;44240;51.840;7.258;2022-07-29T00:35:23;2.35;;;1.30;;
58446;SDS011;44240;51.840;7.258;2022-07-29T00:38:07;3.83;;;1.60;;
58446;SDS011;44240;51.840;7.258;2022-07-29T00:40:32;7.53;;;1.50;;
58446;SDS011;44240;51.840;7.258;2022-07-29T00:42:58;2.25;;;1.13;;
58446;SDS011;44240;51.840;7.258;2022-07-29T00:45:23;3.55;;;1.13;;
58446;SDS011;44240;51.840;7.258;2022-07-29T00:47:49;3.63;;;1.20;;
58446;SDS011;44240;51.840;7.258;2022-07-29T00:50:15;4.45;;;1.40;;
58446;SDS011;44240;51.840;7.258;2022-07-29T00:52:42;3.15;;;1.38;;
58446;SDS011;44240;51.840;7.258;2022-07-29T00:55:09;1.52;;;1.30;;
58446;SDS011;44240;51.840;7.258;2022-07-29T00:57:36;4.97;;;1.83;;
58446;SDS011;44240;51.840;7.258;2022-07-29T01:00:05;4.47;;;1.42;;
58446;SDS011;44240;51.840;7.258;2022-07-29T01:02:34;3.72;;;1.05;;
58446;SDS011;44240;51.840;7.258;2022-07-29T01:05:00;2.42;;;1.30;;
58446;SDS011;44240;51.840;7.258;2022-07-29T01:07:27;4.95;;;1.50;;
58446;SDS011;44240;51.840;7.258;2022-07-29T01:09:53;2.13;;;1.52;;
58446;SDS011;44240;51.840;7.258;2022-07-29T01:12:27;3.03;;;1.33;;
58446;SDS011;44240;51.840;7.258;2022-07-29T01:14:57;5.45;;;1.58;;
58446;SDS011;44240;51.840;7.258;2022-07-29T01:17:26;1.20;;;1.10;;
58446;SDS011;44240;51.840;7.258;2022-07-29T01:30:25;4.18;;;1.30;;
58446;SDS011;44240;51.840;7.258;2022-07-29T01:32:54;1.88;;;1.70;;
58446;SDS011;44240;51.840;7.258;2022-07-29T01:35:24;5.18;;;1.40;;
58446;SDS011;44240;51.840;7.258;2022-07-29T01:38:26;9.32;;;2.28;;
58446;SDS011;44240;51.840;7.258;2022-07-29T01:40:54;1.73;;;0.98;;
58446;SDS011;44240;51.840;7.258;2022-07-29T01:43:23;6.65;;;1.25;;
58446;SDS011;44240;51.840;7.258;2022-07-29T01:46:13;2.97;;;1.80;;
58446;SDS011;44240;51.840;7.258;2022-07-29T01:48:47;3.28;;;1.30;;
58446;SDS011;44240;51.840;7.258;2022-07-29T01:51:21;1.30;;;1.20;;
58446;SDS011;44240;51.840;7.258;2022-07-29T01:56:24;3.25;;;1.10;;
58446;SDS011;44240;51.840;7.258;2022-07-29T01:58:50;2.63;;;1.30;;
58446;SDS011;44240;51.840;7.258;2022-07-29T02:01:18;1.75;;;1.10;;
58446;SDS011;44240;51.840;7.258;2022-07-29T02:03:45;5.18;;;1.10;;
58446;SDS011;44240;51.840;7.258;2022-07-29T02:06:11;2.35;;;1.50;;
58446;SDS011;44240;51.840;7.258;2022-07-29T02:08:41;2.10;;;1.33;;
58446;SDS011;44240;51.840;7.258;2022-07-29T02:11:09;3.70;;;1.70;;
58446;SDS011;44240;51.840;7.258;2022-07-29T02:13:35;4.57;;;1.58;;
58446;SDS011;44240;51.840;7.258;2022-07-29T02:16:02;1.73;;;1.08;;
58446;SDS011;44240;51.840;7.258;2022-07-29T02:18:30;1.80;;;1.45;;
58446;SDS011;44240;51.840;7.258;2022-07-29T02:20:58;1.40;;;1.30;;
58446;SDS011;44240;51.840;7.258;2022-07-29T02:23:25;2.67;;;1.63;;
58446;SDS011;44240;51.840;7.258;2022-07-29T02:25:53;2.05;;;1.20;;
58446;SDS011;44240;51.840;7.258;2022-07-29T02:28:21;3.83;;;1.67;;
58446;SDS011;44240;51.840;7.258;2022-07-29T02:30:49;2.60;;;1.80;;
58446;SDS011;44240;51.840;7.258;2022-07-29T02:33:16;1.50;;;1.40;;
58446;SDS011;44240;51.840;7.258;2022-07-29T02:35:44;4.35;;;1.50;;
58446;SDS011;44240;51.840;7.258;2022-07-29T02:38:12;4.22;;;1.90;;
58446;SDS011;44240;51.840;7.258;2022-07-29T02:40:58;2.40;;;1.50;;
58446;SDS011;44240;51.840;7.258;2022-07-29T02:43:27;5.28;;;1.50;;
58446;SDS011;44240;51.840;7.258;2022-07-29T02:45:55;3.60;;;1.23;;
58446;SDS011;44240;51.840;7.258;2022-07-29T02:48:25;2.15;;;1.20;;
58446;SDS011;44240;51.840;7.258;2022-07-29T02:51:01;4.05;;;1.67;;
58446;SDS011;44240;51.840;7.258;2022-07-29T02:53:58;6.60;;;2.33;;
58446;SDS011;44240;51.840;7.258;2022-07-29T02:56:31;4.38;;;1.58;;
58446;SDS011;44240;51.840;7.258;2022-07-29T02:59:01;2.20;;;2.00;;
58446;SDS011;44240;51.840;7.258;2022-07-29T03:01:31;4.35;;;1.77;;
58446;SDS011;44240;51.840;7.258;2022-07-29T03:03:59;2.40;;;1.42;;
58446;SDS011;44240;51.840;7.258;2022-07-29T03:06:27;4.68;;;1.67;;
58446;SDS011;44240;51.840;7.258;2022-07-29T03:08:55;1.88;;;1.02;;
58446;SDS011;44240;51.840;7.258;2022-07-29T03:11:22;1.88;;;1.65;;
58446;SDS011;44240;51.840;7.258;2022-07-29T03:13:48;2.33;;;1.35;;
58446;SDS011;44240;51.840;7.258;2022-07-29T03:16:14;4.38;;;1.63;;
58446;SDS011;44240;51.840;7.258;2022-07-29T03:18:40;3.58;;;1.60;;
58446;SDS011;44240;51.840;7.258;2022-07-29T03:21:06;5.32;;;1.80;;
58446;SDS011;44240;51.840;7.258;2022-07-29T03:23:33;3.22;;;1.58;;
58446;SDS011;44240;51.840;7.258;2022-07-29T03:25:58;3.67;;;1.25;;
58446;SDS011;44240;51.840;7.258;2022-07-29T03:28:24;2.22;;;1.52;;
58446;SDS011;44240;51.840;7.258;2022-07-29T03:30:52;5.03;;;1.50;;
58446;SDS011;44240;51.840;7.258;2022-07-29T03:33:18;4.75;;;1.80;;
58446;SDS011;44240;51.840;7.258;2022-07-29T03:35:43;2.55;;;1.52;;
58446;SDS011;44240;51.840;7.258;2022-07-29T03:38:09;3.80;;;1.77;;
58446;SDS011;44240;51.840;7.258;2022-07-29T03:40:43;2.95;;;1.73;;
58446;SDS011;44240;51.840;7.258;2022-07-29T03:43:14;4.03;;;1.65;;
58446;SDS011;44240;51.840;7.258;2022-07-29T03:45:42;3.33;;;1.42;;
58446;SDS011;44240;51.840;7.258;2022-07-29T03:48:12;3.17;;;1.40;;
58446;SDS011;44240;51.840;7.258;2022-07-29T03:50:41;6.70;;;1.67;;
58446;SDS011;44240;51.840;7.258;2022-07-29T03:53:06;5.10;;;1.90;;
58446;SDS011;44240;51.840;7.258;2022-07-29T03:55:33;2.90;;;1.63;;
58446;SDS011;44240;51.840;7.258;2022-07-29T03:58:05;1.73;;;1.50;;
58446;SDS011;44240;51.840;7.258;2022-07-29T04:00:32;2.83;;;1.45;;
58446;SDS011;44240;51.840;7.258;2022-07-29T04:02:59;2.10;;;1.52;;
58446;SDS011;44240;51.840;7.258;2022-07-29T04:05:26;6.70;;;1.83;;
58446;SDS011;44240;51.840;7.258;2022-07-29T04:07:51;4.65;;;2.00;;
58446;SDS011;44240;51.840;7.258;2022-07-29T04:10:17;3.38;;;1.60;;
58446;SDS011;44240;51.840;7.258;2022-07-29T04:12:44;2.67;;;1.95;;
58446;SDS011;44240;51.840;7.258;2022-07-29T04:15:10;5.18;;;2.10;;
58446;SDS011;44240;51.840;7.258;2022-07-29T04:17:35;3.65;;;1.52;;
58446;SDS011;44240;51.840;7.258;2022-07-29T04:20:01;3.15;;;1.30;;
58446;SDS011;44240;51.840;7.258;2022-07-29T04:22:27;3.75;;;1.65;;
58446;SDS011;44240;51.840;7.258;2022-07-29T04:24:52;4.85;;;1.60;;
58446;SDS011;44240;51.840;7.258;2022-07-29T04:27:18;4.18;;;1.70;;
58446;SDS011;44240;51.840;7.258;2022-07-29T04:29:43;2.22;;;1.70;;
58446;SDS011;44240;51.840;7.258;2022-07-29T04:32:09;5.13;;;1.83;;
58446;SDS011;44240;51.840;7.258;2022-07-29T04:34:34;5.70;;;1.88;;
58446;SDS011;44240;51.840;7.258;2022-07-29T04:37:00;5.22;;;2.00;;
58446;SDS011;44240;51.840;7.258;2022-07-29T04:39:25;8.25;;;2.00;;
58446;SDS011;44240;51.840;7.258;2022-07-29T04:41:51;3.08;;;2.08;;
58446;SDS011;44240;51.840;7.258;2022-07-29T04:44:16;3.80;;;1.92;;
58446;SDS011;44240;51.840;7.258;2022-07-29T04:46:42;2.17;;;1.88;;
58446;SDS011;44240;51.840;7.258;2022-07-29T04:49:08;5.53;;;2.08;;
58446;SDS011;44240;51.840;7.258;2022-07-29T04:51:33;6.75;;;2.58;;
58446;SDS011;44240;51.840;7.258;2022-07-29T04:53:59;5.05;;;2.00;;
58446;SDS011;44240;51.840;7.258;2022-07-29T04:56:25;9.48;;;2.20;;
58446;SDS011;44240;51.840;7.258;2022-07-29T04:58:51;3.38;;;2.20;;
58446;SDS011;44240;51.840;7.258;2022-07-29T05:01:17;5.22;;;2.38;;
58446;SDS011;44240;51.840;7.258;2022-07-29T05:03:43;8.43;;;3.90;;
58446;SDS011;44240;51.840;7.258;2022-07-29T05:06:10;5.35;;;2.60;;
58446;SDS011;44240;51.840;7.258;2022-07-29T05:08:35;4.25;;;2.83;;
58446;SDS011;44240;51.840;7.258;2022-07-29T05:11:01;4.22;;;2.72;;
58446;SDS011;44240;51.840;7.258;2022-07-29T05:13:26;4.00;;;2.45;;
58446;SDS011;44240;51.840;7.258;2022-07-29T05:15:52;6.00;;;3.10;;
58446;SDS011;44240;51.840;7.258;2022-07-29T05:18:18;5.93;;;3.58;;
58446;SDS011;44240;51.840;7.258;2022-07-29T05:20:43;5.60;;;2.90;;
58446;SDS011;44240;51.840;7.258;2022-07-29T05:23:09;6.40;;;2.92;;
58446;SDS011;44240;51.840;7.258;2022-07-29T05:25:37;6.22;;;2.80;;
58446;SDS011;44240;51.840;7.258;2022-07-29T05:28:03;8.05;;;3.50;;
58446;SDS011;44240;51.840;7.258;2022-07-29T05:30:29;7.65;;;3.25;;
58446;SDS011;44240;51.840;7.258;2022-07-29T05:32:54;6.18;;;3.05;;
58446;SDS011;44240;51.840;7.258;2022-07-29T05:35:20;4.53;;;2.65;;
58446;SDS011;44240;51.840;7.258;2022-07-29T05:37:45;4.72;;;2.95;;
58446;SDS011;44240;51.840;7.258;2022-07-29T05:40:11;5.85;;;3.00;;
58446;SDS011;44240;51.840;7.258;2022-07-29T05:42:36;10.63;;;3.15;;
58446;SDS011;44240;51.840;7.258;2022-07-29T05:45:02;4.53;;;2.83;;
58446;SDS011;44240;51.840;7.258;2022-07-29T05:47:28;5.20;;;3.05;;
58446;SDS011;44240;51.840;7.258;2022-07-29T05:49:54;5.82;;;3.05;;
58446;SDS011;44240;51.840;7.258;2022-07-29T05:52:19;5.03;;;3.00;;
58446;SDS011;44240;51.840;7.258;2022-07-29T05:54:45;7.25;;;3.22;;
58446;SDS011;44240;51.840;7.258;2022-07-29T05:57:17;4.65;;;3.25;;
58446;SDS011;44240;51.840;7.258;2022-07-29T05:59:44;7.40;;;3.30;;
58446;SDS011;44240;51.840;7.258;2022-07-29T06:02:10;4.90;;;3.00;;
58446;SDS011;44240;51.840;7.258;2022-07-29T06:04:36;5.72;;;2.70;;
58446;SDS011;44240;51.840;7.258;2022-07-29T06:07:02;7.82;;;3.30;;
58446;SDS011;44240;51.840;7.258;2022-07-29T06:09:27;8.88;;;3.85;;
58446;SDS011;44240;51.840;7.258;2022-07-29T06:11:53;5.40;;;3.00;;
58446;SDS011;44240;51.840;7.258;2022-07-29T06:14:18;3.53;;;2.70;;
58446;SDS011;44240;51.840;7.258;2022-07-29T06:16:44;7.00;;;3.47;;
58446;SDS011;44240;51.840;7.258;2022-07-29T06:19:10;5.70;;;3.25;;
58446;SDS011;44240;51.840;7.258;2022-07-29T06:21:35;6.18;;;3.38;;
58446;SDS011;44240;51.840;7.258;2022-07-29T06:24:01;4.65;;;2.90;;
58446;SDS011;44240;51.840;7.258;2022-07-29T06:26:27;3.88;;;2.88;;
58446;SDS011;44240;51.840;7.258;2022-07-29T06:28:52;5.47;;;3.28;;
58446;SDS011;44240;51.840;7.258;2022-07-29T06:31:18;4.22;;;3.05;;
58446;SDS011;44240;51.840;7.258;2022-07-29T06:33:43;6.30;;;3.03;;
58446;SDS011;44240;51.840;7.258;2022-07-29T06:36:09;9.02;;;3.50;;
58446;SDS011;44240;51.840;7.258;2022-07-29T06:38:35;3.42;;;3.05;;
58446;SDS011;44240;51.840;7.258;2022-07-29T06:41:00;6.82;;;3.50;;
58446;SDS011;44240;51.840;7.258;2022-07-29T06:43:33;5.05;;;3.10;;
58446;SDS011;44240;51.840;7.258;2022-07-29T06:46:03;6.75;;;3.50;;
58446;SDS011;44240;51.840;7.258;2022-07-29T06:48:34;6.75;;;3.53;;
58446;SDS011;44240;51.840;7.258;2022-07-29T06:51:03;5.72;;;3.40;;
58446;SDS011;44240;51.840;7.258;2022-07-29T06:53:29;4.03;;;2.90;;
58446;SDS011;44240;51.840;7.258;2022-07-29T06:55:55;7.20;;;3.20;;
58446;SDS011;44240;51.840;7.258;2022-07-29T06:58:23;3.80;;;3.15;;
58446;SDS011;44240;51.840;7.258;2022-07-29T07:00:49;5.85;;;3.20;;
58446;SDS011;44240;51.840;7.258;2022-07-29T07:03:15;7.85;;;3.03;;
58446;SDS011;44240;51.840;7.258;2022-07-29T07:05:41;8.43;;;3.00;;
58446;SDS011;44240;51.840;7.258;2022-07-29T07:08:07;8.45;;;2.83;;
58446;SDS011;44240;51.840;7.258;2022-07-29T07:10:33;8.13;;;4.65;;
58446;SDS011;44240;51.840;7.258;2022-07-29T07:12:59;5.50;;;3.53;;
58446;SDS011;44240;51.840;7.258;2022-07-29T07:15:25;5.38;;;3.60;;
58446;SDS011;44240;51.840;7.258;2022-07-29T07:17:51;5.45;;;3.42;;
58446;SDS011;44240;51.840;7.258;2022-07-29T07:20:17;9.18;;;3.00;;
58446;SDS011;44240;51.840;7.258;2022-07-29T07:22:43;3.47;;;3.17;;
58446;SDS011;44240;51.840;7.258;2022-07-29T07:25:09;6.03;;;2.88;;
58446;SDS011;44240;51.840;7.258;2022-07-29T07:27:35;7.78;;;3.25;;
58446;SDS011;44240;51.840;7.258;2022-07-29T07:30:02;5.35;;;3.25;;
58446;SDS011;44240;51.840;7.258;2022-07-29T07:32:30;6.13;;;3.30;;
58446;SDS011;44240;51.840;7.258;2022-07-29T07:34:56;9.00;;;3.28;;
58446;SDS011;44240;51.840;7.258;2022-07-29T07:37:22;5.60;;;3.15;;
58446;SDS011;44240;51.840;7.258;2022-07-29T07:39:49;5.13;;;3.20;;
58446;SDS011;44240;51.840;7.258;2022-07-29T07:42:15;6.75;;;3.67;;
58446;SDS011;44240;51.840;7.258;2022-07-29T07:44:41;6.15;;;3.00;;
58446;SDS011;44240;51.840;7.258;2022-07-29T07:47:06;5.45;;;2.80;;
58446;SDS011;44240;51.840;7.258;2022-07-29T07:49:32;5.90;;;3.50;;
58446;SDS011;44240;51.840;7.258;2022-07-29T07:51:57;5.72;;;3.05;;
58446;SDS011;44240;51.840;7.258;2022-07-29T07:54:23;4.07;;;3.00;;
58446;SDS011;44240;51.840;7.258;2022-07-29T07:56:48;5.95;;;3.08;;
58446;SDS011;44240;51.840;7.258;2022-07-29T07:59:14;5.20;;;2.67;;
58446;SDS011;44240;51.840;7.258;2022-07-29T08:01:41;4.70;;;2.72;;
58446;SDS011;44240;51.840;7.258;2022-07-29T08:04:07;5.25;;;2.67;;
58446;SDS011;44240;51.840;7.258;2022-07-29T08:06:33;2.85;;;2.40;;
58446;SDS011;44240;51.840;7.258;2022-07-29T08:09:00;6.75;;;3.05;;
58446;SDS011;44240;51.840;7.258;2022-07-29T08:11:27;7.55;;;3.15;;
58446;SDS011;44240;51.840;7.258;2022-07-29T08:13:53;12.00;;;4.05;;
58446;SDS011;44240;51.840;7.258;2022-07-29T08:16:19;9.32;;;3.03;;
58446;SDS011;44240;51.840;7.258;2022-07-29T08:18:45;6.63;;;2.65;;
58446;SDS011;44240;51.840;7.258;2022-07-29T08:21:11;7.25;;;2.75;;
58446;SDS011;44240;51.840;7.258;2022-07-29T08:23:38;3.40;;;2.65;;
58446;SDS011;44240;51.840;7.258;2022-07-29T08:26:07;5.82;;;3.30;;
58446;SDS011;44240;51.840;7.258;2022-07-29T08:28:36;6.50;;;3.45;;
58446;SDS011;44240;51.840;7.258;2022-07-29T08:31:02;6.10;;;2.65;;
58446;SDS011;44240;51.840;7.258;2022-07-29T08:33:28;3.35;;;2.95;;
58446;SDS011;44240;51.840;7.258;2022-07-29T08:35:53;4.00;;;2.72;;
58446;SDS011;44240;51.840;7.258;2022-07-29T08:38:19;4.45;;;2.50;;
58446;SDS011;44240;51.840;7.258;2022-07-29T08:40:44;5.88;;;2.58;;
58446;SDS011;44240;51.840;7.258;2022-07-29T08:43:10;5.13;;;2.28;;
58446;SDS011;44240;51.840;7.258;2022-07-29T08:45:43;9.70;;;2.85;;
58446;SDS011;44240;51.840;7.258;2022-07-29T08:48:14;2.97;;;1.98;;
58446;SDS011;44240;51.840;7.258;2022-07-29T08:50:41;4.22;;;2.45;;
58446;SDS011;44240;51.840;7.258;2022-07-29T08:53:09;7.57;;;2.88;;
58446;SDS011;44240;51.840;7.258;2022-07-29T08:55:45;5.45;;;3.03;;
58446;SDS011;44240;51.840;7.258;2022-07-29T08:58:11;6.05;;;2.63;;
58446;SDS011;44240;51.840;7.258;2022-07-29T09:00:41;8.00;;;2.83;;
58446;SDS011;44240;51.840;7.258;2022-07-29T09:03:09;5.03;;;2.55;;
58446;SDS011;44240;51.840;7.258;2022-07-29T09:05:41;6.07;;;2.60;;
58446;SDS011;44240;51.840;7.258;2022-07-29T09:08:07;6.97;;;3.08;;
58446;SDS011;44240;51.840;7.258;2022-07-29T09:10:36;4.55;;;3.00;;
58446;SDS011;44240;51.840;7.258;2022-07-29T09:13:02;4.80;;;3.20;;
58446;SDS011;44240;51.840;7.258;2022-07-29T09:15:27;5.07;;;3.20;;
58446;SDS011;44240;51.840;7.258;2022-07-29T09:17:53;4.93;;;3.15;;
58446;SDS011;44240;51.840;7.258;2022-07-29T09:20:21;5.35;;;3.63;;
58446;SDS011;44240;51.840;7.258;2022-07-29T09:22:48;4.30;;;3.53;;
58446;SDS011;44240;51.840;7.258;2022-07-29T09:25:14;9.13;;;3.78;;
58446;SDS011;44240;51.840;7.258;2022-07-29T09:28:06;7.22;;;3.72;;
58446;SDS011;44240;51.840;7.258;2022-07-29T09:30:34;4.50;;;3.58;;
58446;SDS011;44240;51.840;7.258;2022-07-29T09:33:02;4.68;;;3.58;;
58446;SDS011;44240;51.840;7.258;2022-07-29T09:35:28;12.70;;;3.95;;
58446;SDS011;44240;51.840;7.258;2022-07-29T09:37:55;6.95;;;3.88;;
58446;SDS011;44240;51.840;7.258;2022-07-29T09:40:21;4.20;;;3.80;;
58446;SDS011;44240;51.840;7.258;2022-07-29T09:42:49;5.90;;;3.70;;
58446;SDS011;44240;51.840;7.258;2022-07-29T09:47:57;5.93;;;4.10;;
58446;SDS011;44240;51.840;7.258;2022-07-29T09:50:35;7.22;;;4.30;;
58446;SDS011;44240;51.840;7.258;2022-07-29T09:53:01;6.80;;;4.45;;
58446;SDS011;44240;51.840;7.258;2022-07-29T09:55:27;8.00;;;4.60;;
58446;SDS011;44240;51.840;7.258;2022-07-29T09:57:52;8.02;;;5.13;;
58446;SDS011;44240;51.840;7.258;2022-07-29T10:00:19;10.93;;;5.32;;
58446;SDS011;44240;51.840;7.258;2022-07-29T10:02:46;5.88;;;4.45;;
58446;SDS011;44240;51.840;7.258;2022-07-29T10:05:17;6.55;;;4.57;;
58446;SDS011;44240;51.840;7.258;2022-07-29T10:07:48;5.17;;;4.67;;
58446;SDS011;44240;51.840;7.258;2022-07-29T10:10:22;8.15;;;5.43;;
58446;SDS011;44240;51.840;7.258;2022-07-29T10:12:49;6.28;;;4.68;;
58446;SDS011;44240;51.840;7.258;2022-07-29T10:15:26;7.75;;;5.35;;
58446;SDS011;44240;51.840;7.258;2022-07-29T10:17:55;6.65;;;4.70;;
58446;SDS011;44240;51.840;7.258;2022-07-29T10:20:21;7.53;;;5.80;;
58446;SDS011;44240;51.840;7.258;2022-07-29T10:22:48;8.55;;;5.30;;
58446;SDS011;44240;51.840;7.258;2022-07-29T10:25:15;11.40;;;5.93;;
58446;SDS011;44240;51.840;7.258;2022-07-29T10:27:42;8.68;;;5.97;;
58446;SDS011;44240;51.840;7.258;2022-07-29T10:30:09;7.60;;;6.05;;
58446;SDS011;44240;51.840;7.258;2022-07-29T10:35:31;8.25;;;5.88;;
58446;SDS011;44240;51.840;7.258;2022-07-29T10:38:15;7.55;;;5.25;;
58446;SDS011;44240;51.840;7.258;2022-07-29T10:41:09;7.50;;;5.57;;
58446;SDS011;44240;51.840;7.258;2022-07-29T10:43:52;7.82;;;5.32;;
58446;SDS011;44240;51.840;7.258;2022-07-29T10:46:21;7.80;;;5.30;;
58446;SDS011;44240;51.840;7.258;2022-07-29T10:49:06;6.90;;;4.60;;
58446;SDS011;44240;51.840;7.258;2022-07-29T11:05:03;9.23;;;4.88;;
58446;SDS011;44240;51.840;7.258;2022-07-29T11:07:30;5.93;;;4.30;;
58446;SDS011;44240;51.840;7.258;2022-07-29T11:17:30;5.80;;;4.07;;
58446;SDS011;44240;51.840;7.258;2022-07-29T11:23:29;8.77;;;3.88;;
58446;SDS011;44240;51.840;7.258;2022-07-29T11:31:41;4.88;;;3.58;;
58446;SDS011;44240;51.840;7.258;2022-07-29T11:34:17;9.20;;;3.47;;
58446;SDS011;44240;51.840;7.258;2022-07-29T11:39:39;8.75;;;3.67;;
58446;SDS011;44240;51.840;7.258;2022-07-29T11:47:22;6.22;;;2.97;;
58446;SDS011;44240;51.840;7.258;2022-07-29T11:49:49;5.95;;;3.78;;
58446;SDS011;44240;51.840;7.258;2022-07-29T11:52:16;6.40;;;3.47;;
58446;SDS011;44240;51.840;7.258;2022-07-29T11:54:42;7.18;;;3.22;;
58446;SDS011;44240;51.840;7.258;2022-07-29T11:57:08;4.95;;;3.10;;
58446;SDS011;44240;51.840;7.258;2022-07-29T11:59:41;4.47;;;3.30;;
58446;SDS011;44240;51.840;7.258;2022-07-29T12:02:10;6.38;;;3.25;;
58446;SDS011;44240;51.840;7.258;2022-07-29T12:04:54;6.68;;;3.90;;
58446;SDS011;44240;51.840;7.258;2022-07-29T12:07:28;5.65;;;3.42;;
58446;SDS011;44240;51.840;7.258;2022-07-29T12:09:54;9.13;;;3.80;;
58446;SDS011;44240;51.840;7.258;2022-07-29T12:12:20;4.68;;;3.15;;
58446;SDS011;44240;51.840;7.258;2022-07-29T12:14:46;6.22;;;3.50;;
58446;SDS011;44240;51.840;7.258;2022-07-29T12:17:28;9.85;;;3.50;;
58446;SDS011;44240;51.840;7.258;2022-07-29T12:19:56;3.80;;;2.70;;
58446;SDS011;44240;51.840;7.258;2022-07-29T12:25:00;7.97;;;3.58;;
58446;SDS011;44240;51.840;7.258;2022-07-29T12:27:30;3.70;;;2.75;;
58446;SDS011;44240;51.840;7.258;2022-07-29T12:29:56;5.32;;;2.95;;
58446;SDS011;44240;51.840;7.258;2022-07-29T12:32:23;7.68;;;2.38;;
58446;SDS011;44240;51.840;7.258;2022-07-29T12:35:16;4.80;;;3.13;;
58446;SDS011;44240;51.840;7.258;2022-07-29T12:37:44;5.72;;;2.88;;
58446;SDS011;44240;51.840;7.258;2022-07-29T12:40:13;8.40;;;3.10;;
58446;SDS011;44240;51.840;7.258;2022-07-29T12:42:41;6.00;;;3.10;;
58446;SDS011;44240;51.840;7.258;2022-07-29T12:45:56;4.97;;;2.85;;
58446;SDS011;44240;51.840;7.258;2022-07-29T12:48:32;7.75;;;2.28;;
58446;SDS011;44240;51.840;7.258;2022-07-29T12:51:03;5.13;;;3.03;;
58446;SDS011;44240;51.840;7.258;2022-07-29T12:53:29;8.45;;;2.75;;
58446;SDS011;44240;51.840;7.258;2022-07-29T12:55:56;8.25;;;2.60;;
58446;SDS011;44240;51.840;7.258;2022-07-29T12:58:35;4.32;;;2.45;;
58446;SDS011;44240;51.840;7.258;2022-07-29T13:01:09;4.95;;;2.80;;
58446;SDS011;44240;51.840;7.258;2022-07-29T13:03:52;7.93;;;2.92;;
58446;SDS011;44240;51.840;7.258;2022-07-29T13:14:31;3.97;;;2.05;;
58446;SDS011;44240;51.840;7.258;2022-07-29T13:17:04;4.57;;;2.05;;
58446;SDS011;44240;51.840;7.258;2022-07-29T13:19:35;5.53;;;2.30;;
58446;SDS011;44240;51.840;7.258;2022-07-29T13:22:06;6.00;;;2.53;;
58446;SDS011;44240;51.840;7.258;2022-07-29T13:24:46;3.38;;;2.10;;
58446;SDS011;44240;51.840;7.258;2022-07-29T13:27:13;5.15;;;2.70;;
58446;SDS011;44240;51.840;7.258;2022-07-29T13:29:40;3.95;;;2.10;;
58446;SDS011;44240;51.840;7.258;2022-07-29T13:32:05;2.72;;;2.35;;
58446;SDS011;44240;51.840;7.258;2022-07-29T13:34:32;8.98;;;2.50;;
58446;SDS011;44240;51.840;7.258;2022-07-29T13:36:57;6.40;;;2.53;;
58446;SDS011;44240;51.840;7.258;2022-07-29T13:39:23;6.88;;;2.42;;
58446;SDS011;44240;51.840;7.258;2022-07-29T13:41:48;4.63;;;2.17;;
58446;SDS011;44240;51.840;7.258;2022-07-29T13:44:14;8.40;;;2.58;;
58446;SDS011;44240;51.840;7.258;2022-07-29T13:46:40;5.78;;;2.70;;
58446;SDS011;44240;51.840;7.258;2022-07-29T13:49:05;8.85;;;2.42;;
58446;SDS011;44240;51.840;7.258;2022-07-29T13:51:31;4.78;;;2.10;;
58446;SDS011;44240;51.840;7.258;2022-07-29T13:53:56;5.32;;;2.50;;
58446;SDS011;44240;51.840;7.258;2022-07-29T13:56:22;8.00;;;2.20;;
58446;SDS011;44240;51.840;7.258;2022-07-29T13:58:53;4.80;;;2.28;;
58446;SDS011;44240;51.840;7.258;2022-07-29T14:01:19;5.13;;;2.40;;
58446;SDS011;44240;51.840;7.258;2022-07-29T14:03:44;6.18;;;2.00;;
58446;SDS011;44240;51.840;7.258;2022-07-29T14:06:10;3.90;;;2.20;;
58446;SDS011;44240;51.840;7.258;2022-07-29T14:08:35;5.15;;;2.25;;
58446;SDS011;44240;51.840;7.258;2022-07-29T14:11:01;4.03;;;2.28;;
58446;SDS011;44240;51.840;7.258;2022-07-29T14:13:27;5.95;;;2.40;;
58446;SDS011;44240;51.840;7.258;2022-07-29T14:15:52;5.82;;;2.33;;
58446;SDS011;44240;51.840;7.258;2022-07-29T14:18:18;4.43;;;2.20;;
58446;SDS011;44240;51.840;7.258;2022-07-29T14:20:43;3.60;;;2.38;;
58446;SDS011;44240;51.840;7.258;2022-07-29T14:23:09;6.30;;;2.58;;
58446;SDS011;44240;51.840;7.258;2022-07-29T14:25:34;7.32;;;2.30;;
58446;SDS011;44240;51.840;7.258;2022-07-29T14:28:00;7.32;;;2.60;;
58446;SDS011;44240;51.840;7.258;2022-07-29T14:30:25;4.60;;;2.22;;
58446;SDS011;44240;51.840;7.258;2022-07-29T14:32:51;4.88;;;2.63;;
58446;SDS011;44240;51.840;7.258;2022-07-29T14:35:16;8.68;;;2.47;;
58446;SDS011;44240;51.840;7.258;2022-07-29T14:37:42;8.75;;;2.50;;
58446;SDS011;44240;51.840;7.258;2022-07-29T14:40:08;7.60;;;2.08;;
58446;SDS011;44240;51.840;7.258;2022-07-29T14:42:35;6.22;;;2.58;;
58446;SDS011;44240;51.840;7.258;2022-07-29T14:45:02;6.55;;;2.47;;
58446;SDS011;44240;51.840;7.258;2022-07-29T14:47:28;7.50;;;2.97;;
58446;SDS011;44240;51.840;7.258;2022-07-29T14:49:54;5.57;;;2.60;;
58446;SDS011;44240;51.840;7.258;2022-07-29T14:52:20;5.53;;;2.45;;
58446;SDS011;44240;51.840;7.258;2022-07-29T14:54:45;5.70;;;2.47;;
58446;SDS011;44240;51.840;7.258;2022-07-29T14:57:11;6.22;;;2.35;;
58446;SDS011;44240;51.840;7.258;2022-07-29T14:59:36;6.45;;;2.20;;
58446;SDS011;44240;51.840;7.258;2022-07-29T15:02:02;2.50;;;2.13;;
58446;SDS011;44240;51.840;7.258;2022-07-29T15:04:27;4.72;;;2.40;;
58446;SDS011;44240;51.840;7.258;2022-07-29T15:06:53;4.10;;;2.25;;
58446;SDS011;44240;51.840;7.258;2022-07-29T15:09:18;5.40;;;2.05;;
58446;SDS011;44240;51.840;7.258;2022-07-29T15:11:44;4.63;;;2.90;;
58446;SDS011;44240;51.840;7.258;2022-07-29T15:14:09;6.45;;;1.98;;
58446;SDS011;44240;51.840;7.258;2022-07-29T15:16:36;4.55;;;2.67;;
58446;SDS011;44240;51.840;7.258;2022-07-29T15:19:02;6.95;;;2.20;;
58446;SDS011;44240;51.840;7.258;2022-07-29T15:21:28;4.30;;;2.28;;
58446;SDS011;44240;51.840;7.258;2022-07-29T15:23:54;2.58;;;1.90;;
58446;SDS011;44240;51.840;7.258;2022-07-29T15:26:19;4.85;;;2.53;;
58446;SDS011;44240;51.840;7.258;2022-07-29T15:28:45;4.90;;;2.70;;
58446;SDS011;44240;51.840;7.258;2022-07-29T15:31:11;7.70;;;2.30;;
58446;SDS011;44240;51.840;7.258;2022-07-29T15:33:37;2.97;;;2.50;;
58446;SDS011;44240;51.840;7.258;2022-07-29T15:36:02;1.88;;;1.77;;
58446;SDS011;44240;51.840;7.258;2022-07-29T15:38:29;4.20;;;2.63;;
58446;SDS011;44240;51.840;7.258;2022-07-29T15:40:55;8.88;;;2.08;;
58446;SDS011;44240;51.840;7.258;2022-07-29T15:43:21;4.68;;;2.22;;
58446;SDS011;44240;51.840;7.258;2022-07-29T15:45:47;5.30;;;2.30;;
58446;SDS011;44240;51.840;7.258;2022-07-29T15:48:32;5.13;;;2.63;;
58446;SDS011;44240;51.840;7.258;2022-07-29T15:51:00;5.78;;;2.60;;
58446;SDS011;44240;51.840;7.258;2022-07-29T15:53:26;4.20;;;2.13;;
58446;SDS011;44240;51.840;7.258;2022-07-29T15:55:51;4.43;;;2.50;;
58446;SDS011;44240;51.840;7.258;2022-07-29T15:58:17;6.28;;;2.40;;
58446;SDS011;44240;51.840;7.258;2022-07-29T16:00:43;6.38;;;2.58;;